createdAt,value
2022-11-18T00:00:18.593Z,98339.09
2022-11-18T00:00:50.905Z,98329.34
2022-11-18T00:01:23.632Z,98332.63
2022-11-18T00:01:55.527Z,98332.19
2022-11-18T00:02:27.500Z,98333.44
2022-11-18T00:02:59.365Z,98335.12
2022-11-18T00:03:31.200Z,98331.84
2022-11-18T00:04:03.087Z,98331.28
2022-11-18T00:04:34.959Z,98332.78
2022-11-18T00:05:06.937Z,98338.75
2022-11-18T00:05:38.807Z,98337.06
2022-11-18T00:06:13.626Z,98337.94
2022-11-18T00:06:45.627Z,98330.59
2022-11-18T00:07:17.577Z,98337.63
2022-11-18T00:07:49.556Z,98335.34
2022-11-18T00:08:22.440Z,98336.25
2022-11-18T00:08:55.452Z,98333.19
2022-11-18T00:09:27.318Z,98338.16
2022-11-18T00:09:59.263Z,98333.84
2022-11-18T00:10:31.118Z,98333.41
2022-11-18T00:11:34.013Z,98333.53
2022-11-18T00:12:24.745Z,98337.69
2022-11-18T00:13:16.325Z,98332.75
2022-11-18T00:14:07.199Z,98327.44
2022-11-18T00:14:39.107Z,98327.19
2022-11-18T00:15:10.959Z,98323.59
2022-11-18T00:15:42.816Z,98325.06
2022-11-18T00:16:14.678Z,98326.53
2022-11-18T00:16:48.181Z,98322.34
2022-11-18T00:17:20.371Z,98330.72
2022-11-18T00:17:52.221Z,98319.28
2022-11-18T00:18:24.111Z,98317.50
2022-11-18T00:18:56.066Z,98328.22
2022-11-18T00:19:37.729Z,98315.91
2022-11-18T00:20:10.468Z,98312.97
2022-11-18T00:20:42.612Z,98310.38
2022-11-18T00:21:14.755Z,98312.28
2022-11-18T00:21:46.660Z,98311.59
2022-11-18T00:22:18.568Z,98308.53
2022-11-18T00:22:50.931Z,98307.72
2022-11-18T00:23:22.906Z,98307.84
2022-11-18T00:23:54.920Z,98316.78
2022-11-18T00:24:27.312Z,98315.53
2022-11-18T00:24:59.458Z,98309.06
2022-11-18T00:25:31.351Z,98317.91
2022-11-18T00:26:12.442Z,98317.03
2022-11-18T00:26:44.647Z,98320.88
2022-11-18T00:27:16.550Z,98316.34
2022-11-18T00:27:48.425Z,98319.16
2022-11-18T00:28:20.882Z,98322.34
2022-11-18T00:28:52.758Z,98314.78
2022-11-18T00:29:26.919Z,98318.97
2022-11-18T00:29:58.808Z,98320.88
2022-11-18T00:30:30.737Z,98313.75
2022-11-18T00:31:10.674Z,98320.53
2022-11-18T00:31:43.286Z,98319.38
2022-11-18T00:32:15.137Z,98316.78
2022-11-18T00:32:47.021Z,98316.69
2022-11-18T00:33:18.894Z,98321.25
2022-11-18T00:33:51.069Z,98319.88
2022-11-18T00:34:23.664Z,98323.47
2022-11-18T00:34:55.559Z,98318.75
2022-11-18T00:35:27.456Z,98323.38
2022-11-18T00:35:59.723Z,98318.63
2022-11-18T00:36:31.792Z,98318.88
2022-11-18T00:37:03.650Z,98312.88
2022-11-18T00:37:35.533Z,98310.16
2022-11-18T00:38:07.408Z,98318.31
2022-11-18T00:38:40.356Z,98313.09
2022-11-18T00:39:15.115Z,98312.62
2022-11-18T00:39:47.278Z,98307.00
2022-11-18T00:40:19.335Z,98309.16
2022-11-18T00:40:59.912Z,98312.06
2022-11-18T00:41:50.441Z,98307.22
2022-11-18T00:42:40.832Z,98307.88
2022-11-18T00:43:12.691Z,98308.25
2022-11-18T00:43:44.563Z,98304.84
2022-11-18T00:44:16.721Z,98306.34
2022-11-18T00:44:48.567Z,98304.41
2022-11-18T00:45:21.936Z,98309.81
2022-11-18T00:45:53.928Z,98306.34
2022-11-18T00:46:25.816Z,98300.00
2022-11-18T00:46:57.963Z,98304.84
2022-11-18T00:47:29.791Z,98304.16
2022-11-18T00:48:02.991Z,98294.00
2022-11-18T00:48:35.504Z,98295.91
2022-11-18T00:49:07.928Z,98297.28
2022-11-18T00:49:40.560Z,98293.09
2022-11-18T00:50:12.511Z,98295.47
2022-11-18T00:50:44.402Z,98288.69
2022-11-18T00:51:18.687Z,98291.38
2022-11-18T00:51:50.695Z,98289.34
2022-11-18T00:52:22.584Z,98288.22
2022-11-18T00:52:54.646Z,98290.16
2022-11-18T00:53:27.189Z,98290.03
2022-11-18T00:53:59.048Z,98281.78
2022-11-18T00:54:31.124Z,98288.91
2022-11-18T00:55:03.392Z,98284.47
2022-11-18T00:55:35.347Z,98285.06
2022-11-18T00:56:08.393Z,98287.78
2022-11-18T00:56:40.280Z,98288.34
2022-11-18T00:57:12.228Z,98287.22
2022-11-18T00:57:44.105Z,98286.78
2022-11-18T00:58:16.095Z,98281.91
2022-11-18T00:58:48.007Z,98280.88
2022-11-18T00:59:20.407Z,98274.06
2022-11-18T00:59:52.548Z,98282.19
2022-11-18T01:00:24.700Z,98277.91
2022-11-18T01:00:56.777Z,98276.13
2022-11-18T01:01:28.771Z,98274.34
2022-11-18T01:02:00.647Z,98279.06
2022-11-18T01:02:32.547Z,98278.28
2022-11-18T01:03:04.431Z,98282.81
2022-11-18T01:03:36.288Z,98282.56
2022-11-18T01:04:08.196Z,98277.81
2022-11-18T01:04:40.140Z,98281.62
2022-11-18T01:05:12.026Z,98282.97
2022-11-18T01:05:44.305Z,98281.25
2022-11-18T01:06:16.520Z,98281.13
2022-11-18T01:06:48.436Z,98282.72
2022-11-18T01:07:20.440Z,98282.03
2022-11-18T01:07:52.303Z,98282.41
2022-11-18T01:08:25.933Z,98277.56
2022-11-18T01:08:57.823Z,98280.97
2022-11-18T01:09:29.739Z,98281.38
2022-11-18T01:10:01.658Z,98283.84
2022-11-18T01:10:34.201Z,98285.34
2022-11-18T01:11:25.052Z,98279.59
2022-11-18T01:12:15.550Z,98275.09
2022-11-18T01:13:06.235Z,98284.59
2022-11-18T01:13:38.141Z,98278.59
2022-11-18T01:14:10.042Z,98279.75
2022-11-18T01:14:41.959Z,98282.69
2022-11-18T01:15:13.859Z,98276.69
2022-11-18T01:15:48.788Z,98280.75
2022-11-18T01:16:26.896Z,98275.88
2022-11-18T01:16:58.755Z,98281.41
2022-11-18T01:17:31.521Z,98282.66
2022-11-18T01:18:03.482Z,98280.88
2022-11-18T01:18:35.449Z,98282.78
2022-11-18T01:19:07.977Z,98278.50
2022-11-18T01:19:39.855Z,98283.81
2022-11-18T01:20:11.957Z,98280.53
2022-11-18T01:20:44.481Z,98275.56
2022-11-18T01:21:17.062Z,98281.78
2022-11-18T01:21:49.680Z,98288.44
2022-11-18T01:22:21.715Z,98279.19
2022-11-18T01:22:53.572Z,98283.38
2022-11-18T01:23:25.551Z,98278.75
2022-11-18T01:23:57.555Z,98286.44
2022-11-18T01:24:31.193Z,98279.19
2022-11-18T01:25:03.176Z,98290.06
2022-11-18T01:25:39.461Z,98293.19
2022-11-18T01:26:13.662Z,98286.75
2022-11-18T01:26:45.575Z,98281.31
2022-11-18T01:27:17.885Z,98289.69
2022-11-18T01:27:49.824Z,98283.38
2022-11-18T01:28:23.949Z,98286.44
2022-11-18T01:29:00.091Z,98280.78
2022-11-18T01:29:32.029Z,98280.88
2022-11-18T01:30:04.479Z,98276.25
2022-11-18T01:30:38.048Z,98271.72
2022-11-18T01:31:13.419Z,98277.28
2022-11-18T01:32:01.908Z,98267.78
2022-11-18T01:32:37.421Z,98275.94
2022-11-18T01:33:09.425Z,98276.47
2022-11-18T01:33:42.135Z,98269.03
2022-11-18T01:34:14.731Z,98263.84
2022-11-18T01:34:46.708Z,98264.41
2022-11-18T01:35:18.735Z,98264.84
2022-11-18T01:35:50.628Z,98264.19
2022-11-18T01:36:27.619Z,98262.59
2022-11-18T01:36:59.532Z,98259.53
2022-11-18T01:37:31.370Z,98262.72
2022-11-18T01:38:04.320Z,98263.59
2022-11-18T01:38:36.177Z,98268.47
2022-11-18T01:39:08.098Z,98263.97
2022-11-18T01:39:40.015Z,98269.03
2022-11-18T01:40:12.422Z,98264.63
2022-11-18T01:40:44.366Z,98263.94
2022-11-18T01:41:17.145Z,98268.59
2022-11-18T01:41:49.042Z,98269.16
2022-11-18T01:42:20.943Z,98265.88
2022-11-18T01:42:52.908Z,98273.66
2022-11-18T01:43:25.094Z,98279.53
2022-11-18T01:44:26.978Z,98279.19
2022-11-18T01:45:23.496Z,98281.00
2022-11-18T01:45:55.369Z,98288.34
2022-11-18T01:46:30.002Z,98282.03
2022-11-18T01:47:02.000Z,98278.75
2022-11-18T01:47:44.807Z,98271.06
2022-11-18T01:48:18.443Z,98277.19
2022-11-18T01:48:55.793Z,98283.94
2022-11-18T01:49:28.018Z,98283.50
2022-11-18T01:50:00.786Z,98290.06
2022-11-18T01:50:36.938Z,98292.66
2022-11-18T01:51:16.899Z,98287.78
2022-11-18T01:51:55.222Z,98294.03
2022-11-18T01:52:27.481Z,98298.97
2022-11-18T01:53:04.925Z,98305.31
2022-11-18T01:53:42.223Z,98296.84
2022-11-18T01:54:20.280Z,98296.47
2022-11-18T01:54:59.422Z,98293.00
2022-11-18T01:55:35.693Z,98293.56
2022-11-18T01:56:14.243Z,98296.72
2022-11-18T01:56:52.699Z,98282.81
2022-11-18T01:57:27.775Z,98281.56
2022-11-18T01:58:09.159Z,98289.94
2022-11-18T01:58:51.305Z,98286.31
2022-11-18T01:59:30.875Z,98295.47
2022-11-18T02:00:06.055Z,98292.28
2022-11-18T02:00:38.855Z,98292.41
2022-11-18T02:01:11.526Z,98297.16
2022-11-18T02:01:44.137Z,98288.22
2022-11-18T02:02:16.504Z,98294.00
2022-11-18T02:02:49.061Z,98296.03
2022-11-18T02:03:22.163Z,98296.13
2022-11-18T02:03:55.918Z,98287.34
2022-11-18T02:04:28.036Z,98296.63
2022-11-18T02:05:02.569Z,98297.72
2022-11-18T02:05:36.209Z,98300.44
2022-11-18T02:06:10.308Z,98285.50
2022-11-18T02:06:47.313Z,98293.63
2022-11-18T02:07:21.440Z,98283.03
2022-11-18T02:07:53.412Z,98282.25
2022-11-18T02:08:26.017Z,98284.06
2022-11-18T02:08:58.516Z,98292.19
2022-11-18T02:09:30.609Z,98285.94
2022-11-18T02:10:05.300Z,98286.87
2022-11-18T02:10:37.139Z,98290.34
2022-11-18T02:11:34.092Z,98283.34
2022-11-18T02:12:07.502Z,98278.19
2022-11-18T02:12:39.430Z,98279.44
2022-11-18T02:13:12.986Z,98279.66
2022-11-18T02:13:44.854Z,98274.56
2022-11-18T02:14:19.830Z,98280.63
2022-11-18T02:14:52.147Z,98277.38
2022-11-18T02:15:46.634Z,98282.12
2022-11-18T02:16:28.171Z,98282.12
2022-11-18T02:16:59.995Z,98281.09
2022-11-18T02:17:57.380Z,98278.03
2022-11-18T02:18:56.104Z,98291.13
2022-11-18T02:19:46.693Z,98296.34
2022-11-18T02:20:29.548Z,98288.53
2022-11-18T02:21:29.029Z,98286.97
2022-11-18T02:22:20.129Z,98284.69
2022-11-18T02:23:03.979Z,98284.03
2022-11-18T02:23:53.965Z,98283.34
2022-11-18T02:24:43.729Z,98280.28
2022-11-18T02:25:24.649Z,98277.78
2022-11-18T02:26:33.563Z,98279.37
2022-11-18T02:27:27.364Z,98284.00
2022-11-18T02:28:08.245Z,98280.47
2022-11-18T02:29:08.746Z,98281.38
2022-11-18T02:29:58.721Z,98283.16
2022-11-18T02:30:34.153Z,98285.22
2022-11-18T02:31:12.189Z,98286.59
2022-11-18T02:31:55.476Z,98281.19
2022-11-18T02:32:34.820Z,98286.28
2022-11-18T02:33:23.267Z,98282.88
2022-11-18T02:34:28.378Z,98275.75
2022-11-18T02:35:12.265Z,98279.37
2022-11-18T02:35:51.960Z,98279.94
2022-11-18T02:36:31.650Z,98272.16
2022-11-18T02:37:19.254Z,98274.75
2022-11-18T02:38:07.461Z,98270.91
2022-11-18T02:38:45.671Z,98274.28
2022-11-18T02:39:23.158Z,98273.88
2022-11-18T02:40:01.508Z,98268.66
2022-11-18T02:40:43.004Z,98268.56
2022-11-18T02:41:22.244Z,98269.56
2022-11-18T02:41:59.787Z,98270.69
2022-11-18T02:42:35.806Z,98263.13
2022-11-18T02:43:18.543Z,98266.84
2022-11-18T02:43:55.779Z,98265.38
2022-11-18T02:44:29.771Z,98262.63
2022-11-18T02:45:06.931Z,98266.13
2022-11-18T02:45:43.022Z,98258.88
2022-11-18T02:46:25.844Z,98250.38
2022-11-18T02:47:02.016Z,98253.69
2022-11-18T02:47:36.446Z,98246.44
2022-11-18T02:48:11.659Z,98252.44
2022-11-18T02:48:50.478Z,98256.66
2022-11-18T02:49:51.952Z,98250.28
2022-11-18T02:50:28.140Z,98240.56
2022-11-18T02:51:02.710Z,98241.22
2022-11-18T02:51:36.396Z,98238.41
2022-11-18T02:52:11.910Z,98236.91
2022-11-18T02:52:46.322Z,98235.72
2022-11-18T02:53:21.098Z,98235.84
2022-11-18T02:53:56.696Z,98240.28
2022-11-18T02:54:29.473Z,98238.63
2022-11-18T02:55:05.460Z,98230.56
2022-11-18T02:55:39.328Z,98239.38
2022-11-18T02:56:12.296Z,98234.50
2022-11-18T02:56:46.335Z,98233.94
2022-11-18T02:57:20.010Z,98231.75
2022-11-18T02:57:53.561Z,98229.59
2022-11-18T02:58:26.559Z,98231.41
2022-11-18T02:58:58.585Z,98231.66
2022-11-18T02:59:30.521Z,98229.47
2022-11-18T03:00:02.505Z,98225.41
2022-11-18T03:00:36.387Z,98230.16
2022-11-18T03:01:18.593Z,98224.06
2022-11-18T03:01:50.968Z,98227.75
2022-11-18T03:02:23.466Z,98220.88
2022-11-18T03:02:55.357Z,98225.63
2022-11-18T03:03:31.027Z,98220.53
2022-11-18T03:04:03.341Z,98232.84
2022-11-18T03:04:36.008Z,98234.09
2022-11-18T03:05:13.315Z,98225.16
2022-11-18T03:06:01.424Z,98232.75
2022-11-18T03:06:39.897Z,98235.19
2022-11-18T03:07:21.475Z,98225.47
2022-11-18T03:08:05.672Z,98227.75
2022-11-18T03:08:50.270Z,98221.66
2022-11-18T03:09:31.245Z,98225.31
2022-11-18T03:10:03.862Z,98226.56
2022-11-18T03:11:14.568Z,98222.34
2022-11-18T03:12:05.089Z,98217.13
2022-11-18T03:12:59.519Z,98215.22
2022-11-18T03:13:41.935Z,98227.00
2022-11-18T03:14:17.041Z,98221.72
2022-11-18T03:15:21.139Z,98222.06
2022-11-18T03:16:02.667Z,98225.75
2022-11-18T03:16:42.761Z,98231.06
2022-11-18T03:17:44.773Z,98233.81
2022-11-18T03:18:21.012Z,98221.38
2022-11-18T03:19:14.543Z,98226.56
2022-11-18T03:20:16.835Z,98219.75
2022-11-18T03:20:53.286Z,98218.13
2022-11-18T03:21:30.265Z,98222.16
2022-11-18T03:22:08.016Z,98225.31
2022-11-18T03:22:55.085Z,98217.94
2022-11-18T03:23:38.663Z,98224.66
2022-11-18T03:24:19.066Z,98223.06
2022-11-18T03:25:01.212Z,98225.25
2022-11-18T03:25:42.180Z,98222.19
2022-11-18T03:26:31.282Z,98217.94
2022-11-18T03:27:30.029Z,98216.47
2022-11-18T03:28:18.237Z,98217.81
2022-11-18T03:28:59.201Z,98213.56
2022-11-18T03:29:36.268Z,98220.00
2022-11-18T03:30:12.692Z,98220.88
2022-11-18T03:30:57.964Z,98221.88
2022-11-18T03:31:40.938Z,98217.00
2022-11-18T03:32:18.372Z,98218.22
2022-11-18T03:33:04.060Z,98211.56
2022-11-18T03:33:42.297Z,98216.75
2022-11-18T03:34:36.140Z,98226.50
2022-11-18T03:35:12.973Z,98225.94
2022-11-18T03:35:47.944Z,98225.34
2022-11-18T03:36:23.429Z,98223.88
2022-11-18T03:37:01.167Z,98230.94
2022-11-18T03:37:35.861Z,98230.84
2022-11-18T03:38:16.124Z,98221.69
2022-11-18T03:38:53.910Z,98225.06
2022-11-18T03:39:28.911Z,98221.03
2022-11-18T03:40:15.408Z,98232.81
2022-11-18T03:40:52.508Z,98216.69
2022-11-18T03:41:26.434Z,98217.25
2022-11-18T03:42:08.700Z,98214.28
2022-11-18T03:43:13.015Z,98216.66
2022-11-18T03:43:57.757Z,98214.25
2022-11-18T03:44:35.398Z,98210.63
2022-11-18T03:45:14.824Z,98208.94
2022-11-18T03:45:54.369Z,98207.72
2022-11-18T03:46:36.938Z,98213.28
2022-11-18T03:47:24.488Z,98210.78
2022-11-18T03:48:03.651Z,98204.72
2022-11-18T03:48:41.345Z,98211.78
2022-11-18T03:49:20.337Z,98210.22
2022-11-18T03:50:41.834Z,98207.44
2022-11-18T03:51:18.607Z,98215.69
2022-11-18T03:51:57.135Z,98218.37
2022-11-18T03:52:33.158Z,98217.47
2022-11-18T03:53:06.288Z,98229.56
2022-11-18T03:53:44.371Z,98235.44
2022-11-18T03:54:22.044Z,98231.41
2022-11-18T03:54:57.905Z,98225.75
2022-11-18T03:55:35.339Z,98229.84
2022-11-18T03:56:17.106Z,98229.94
2022-11-18T03:57:02.725Z,98233.22
2022-11-18T03:57:51.968Z,98240.75
2022-11-18T03:58:32.456Z,98235.63
2022-11-18T03:59:29.562Z,98227.66
2022-11-18T04:00:11.279Z,98237.19
2022-11-18T04:00:48.391Z,98228.34
2022-11-18T04:01:29.329Z,98236.16
2022-11-18T04:02:20.660Z,98232.66
2022-11-18T04:02:52.788Z,98235.94
2022-11-18T04:03:26.246Z,98238.84
2022-11-18T04:03:58.215Z,98239.31
2022-11-18T04:04:30.319Z,98238.31
2022-11-18T04:05:04.544Z,98243.53
2022-11-18T04:05:40.070Z,98238.31
2022-11-18T04:06:21.457Z,98245.78
2022-11-18T04:06:59.124Z,98239.31
2022-11-18T04:07:42.183Z,98237.16
2022-11-18T04:08:24.679Z,98235.16
2022-11-18T04:09:03.204Z,98242.97
2022-11-18T04:09:43.081Z,98230.16
2022-11-18T04:10:19.473Z,98234.97
2022-11-18T04:10:59.903Z,98233.16
2022-11-18T04:11:55.703Z,98238.03
2022-11-18T04:12:31.801Z,98233.16
2022-11-18T04:13:12.621Z,98234.78
2022-11-18T04:13:44.480Z,98232.06
2022-11-18T04:14:18.743Z,98234.31
2022-11-18T04:14:55.408Z,98240.91
2022-11-18T04:15:28.101Z,98235.63
2022-11-18T04:16:00.590Z,98230.53
2022-11-18T04:16:40.305Z,98232.09
2022-11-18T04:17:14.887Z,98235.06
2022-11-18T04:17:46.816Z,98225.75
2022-11-18T04:18:19.327Z,98228.91
2022-11-18T04:18:51.205Z,98225.22
2022-11-18T04:19:23.672Z,98227.34
2022-11-18T04:19:56.274Z,98215.13
2022-11-18T04:20:28.777Z,98209.25
2022-11-18T04:21:00.617Z,98217.13
2022-11-18T04:21:32.854Z,98208.56
2022-11-18T04:22:05.127Z,98208.78
2022-11-18T04:22:37.070Z,98207.19
2022-11-18T04:23:09.071Z,98199.84
2022-11-18T04:23:40.958Z,98203.34
2022-11-18T04:24:12.908Z,98202.66
2022-11-18T04:24:45.117Z,98195.94
2022-11-18T04:25:17.038Z,98195.53
2022-11-18T04:25:48.933Z,98199.72
2022-11-18T04:26:20.795Z,98199.50
2022-11-18T04:26:52.950Z,98192.84
2022-11-18T04:27:24.824Z,98196.47
2022-11-18T04:27:56.688Z,98187.00
2022-11-18T04:28:28.559Z,98184.12
2022-11-18T04:29:00.767Z,98184.59
2022-11-18T04:29:33.890Z,98185.97
2022-11-18T04:30:07.343Z,98181.53
2022-11-18T04:30:39.345Z,98180.53
2022-11-18T04:31:11.320Z,98181.09
2022-11-18T04:31:43.253Z,98181.63
2022-11-18T04:32:15.381Z,98184.69
2022-11-18T04:32:47.337Z,98178.81
2022-11-18T04:33:19.186Z,98184.31
2022-11-18T04:33:51.068Z,98187.56
2022-11-18T04:34:23.089Z,98184.88
2022-11-18T04:34:54.971Z,98186.84
2022-11-18T04:35:27.435Z,98188.16
2022-11-18T04:35:59.301Z,98185.31
2022-11-18T04:36:31.227Z,98181.00
2022-11-18T04:37:03.241Z,98188.44
2022-11-18T04:37:35.615Z,98189.44
2022-11-18T04:38:07.504Z,98182.66
2022-11-18T04:38:39.393Z,98183.44
2022-11-18T04:39:11.292Z,98180.16
2022-11-18T04:39:43.249Z,98183.69
2022-11-18T04:40:15.323Z,98187.31
2022-11-18T04:40:47.275Z,98186.81
2022-11-18T04:41:19.268Z,98188.66
2022-11-18T04:41:57.229Z,98189.81
2022-11-18T04:42:29.153Z,98180.88
2022-11-18T04:43:01.331Z,98183.09
2022-11-18T04:43:33.266Z,98185.47
2022-11-18T04:44:13.139Z,98175.84
2022-11-18T04:44:45.315Z,98180.72
2022-11-18T04:45:17.366Z,98182.28
2022-11-18T04:45:49.213Z,98178.91
2022-11-18T04:46:21.166Z,98181.34
2022-11-18T04:46:54.035Z,98184.03
2022-11-18T04:47:25.884Z,98179.19
2022-11-18T04:48:03.071Z,98180.53
2022-11-18T04:48:35.970Z,98173.75
2022-11-18T04:49:09.695Z,98178.94
2022-11-18T04:49:41.546Z,98185.97
2022-11-18T04:50:13.434Z,98183.50
2022-11-18T04:50:45.546Z,98179.97
2022-11-18T04:51:17.465Z,98179.50
2022-11-18T04:51:50.158Z,98181.00
2022-11-18T04:52:22.100Z,98181.72
2022-11-18T04:52:53.954Z,98178.13
2022-11-18T04:53:25.878Z,98176.16
2022-11-18T04:53:58.144Z,98183.62
2022-11-18T04:54:30.067Z,98185.22
2022-11-18T04:55:01.993Z,98186.94
2022-11-18T04:55:36.544Z,98183.47
2022-11-18T04:56:08.436Z,98182.13
2022-11-18T04:56:45.815Z,98182.38
2022-11-18T04:57:20.853Z,98184.16
2022-11-18T04:57:52.818Z,98186.75
2022-11-18T04:58:24.705Z,98184.97
2022-11-18T04:59:01.938Z,98187.00
2022-11-18T04:59:33.892Z,98184.88
2022-11-18T05:00:06.566Z,98189.06
2022-11-18T05:00:38.838Z,98187.00
2022-11-18T05:01:11.251Z,98187.47
2022-11-18T05:01:43.260Z,98189.38
2022-11-18T05:02:15.264Z,98184.63
2022-11-18T05:02:48.233Z,98187.91
2022-11-18T05:03:20.184Z,98194.44
2022-11-18T05:03:52.135Z,98191.94
2022-11-18T05:04:27.540Z,98196.34
2022-11-18T05:04:59.432Z,98200.63
2022-11-18T05:05:31.329Z,98205.69
2022-11-18T05:06:03.285Z,98209.97
2022-11-18T05:06:35.337Z,98206.81
2022-11-18T05:07:08.050Z,98216.56
2022-11-18T05:07:40.072Z,98217.66
2022-11-18T05:08:11.985Z,98220.62
2022-11-18T05:08:43.914Z,98215.75
2022-11-18T05:09:16.918Z,98216.09
2022-11-18T05:09:49.437Z,98219.94
2022-11-18T05:10:21.283Z,98218.50
2022-11-18T05:11:13.604Z,98214.88
2022-11-18T05:12:04.126Z,98217.47
2022-11-18T05:12:52.319Z,98211.00
2022-11-18T05:13:24.195Z,98207.03
2022-11-18T05:13:56.068Z,98203.47
2022-11-18T05:14:29.860Z,98201.06
2022-11-18T05:15:02.119Z,98207.12
2022-11-18T05:15:34.032Z,98206.34
2022-11-18T05:16:06.164Z,98202.13
2022-11-18T05:16:38.091Z,98211.97
2022-11-18T05:17:10.595Z,98211.28
2022-11-18T05:17:42.548Z,98210.59
2022-11-18T05:18:14.412Z,98213.31
2022-11-18T05:18:46.332Z,98204.81
2022-11-18T05:19:18.780Z,98207.63
2022-11-18T05:19:50.754Z,98201.87
2022-11-18T05:20:23.021Z,98197.69
2022-11-18T05:20:54.880Z,98197.25
2022-11-18T05:21:26.698Z,98192.28
2022-11-18T05:21:59.207Z,98193.97
2022-11-18T05:22:31.121Z,98198.69
2022-11-18T05:23:02.972Z,98190.69
2022-11-18T05:23:34.834Z,98196.94
2022-11-18T05:24:07.102Z,98193.50
2022-11-18T05:24:39.104Z,98188.66
2022-11-18T05:25:10.974Z,98194.94
2022-11-18T05:25:43.111Z,98197.78
2022-11-18T05:26:14.938Z,98191.00
2022-11-18T05:26:48.140Z,98187.09
2022-11-18T05:27:19.973Z,98185.16
2022-11-18T05:27:51.828Z,98182.41
2022-11-18T05:28:23.691Z,98191.34
2022-11-18T05:28:55.999Z,98191.66
2022-11-18T05:29:27.943Z,98177.09
2022-11-18T05:29:59.814Z,98193.38
2022-11-18T05:30:31.701Z,98189.44
2022-11-18T05:31:13.045Z,98189.31
2022-11-18T05:31:47.864Z,98183.44
2022-11-18T05:32:19.770Z,98184.53
2022-11-18T05:32:51.876Z,98183.81
2022-11-18T05:33:23.892Z,98191.16
2022-11-18T05:33:56.630Z,98187.09
2022-11-18T05:34:28.498Z,98192.41
2022-11-18T05:35:00.362Z,98189.34
2022-11-18T05:35:32.197Z,98181.06
2022-11-18T05:36:09.711Z,98193.06
2022-11-18T05:36:41.981Z,98191.22
2022-11-18T05:37:13.951Z,98189.16
2022-11-18T05:37:45.840Z,98183.41
2022-11-18T05:38:17.850Z,98195.28
2022-11-18T05:38:50.229Z,98191.47
2022-11-18T05:39:22.100Z,98192.97
2022-11-18T05:39:53.981Z,98183.72
2022-11-18T05:40:25.829Z,98185.59
2022-11-18T05:40:57.804Z,98185.16
2022-11-18T05:41:48.712Z,98191.84
2022-11-18T05:42:39.100Z,98192.41
2022-11-18T05:43:11.131Z,98183.66
2022-11-18T05:43:43.001Z,98180.41
2022-11-18T05:44:15.633Z,98183.25
2022-11-18T05:44:47.603Z,98187.56
2022-11-18T05:45:20.505Z,98192.41
2022-11-18T05:45:52.918Z,98196.47
2022-11-18T05:46:25.172Z,98190.59
2022-11-18T05:46:57.527Z,98191.72
2022-11-18T05:47:49.390Z,98182.69
2022-11-18T05:48:21.689Z,98189.59
2022-11-18T05:48:53.615Z,98188.81
2022-11-18T05:49:25.831Z,98194.44
2022-11-18T05:49:57.706Z,98194.63
2022-11-18T05:50:34.030Z,98195.09
2022-11-18T05:51:06.200Z,98195.31
2022-11-18T05:51:38.212Z,98191.66
2022-11-18T05:52:10.667Z,98198.78
2022-11-18T05:52:42.575Z,98188.06
2022-11-18T05:53:15.189Z,98187.72
2022-11-18T05:53:50.691Z,98181.25
2022-11-18T05:54:23.079Z,98182.50
2022-11-18T05:54:55.066Z,98183.56
2022-11-18T05:55:31.940Z,98180.41
2022-11-18T05:56:07.477Z,98178.16
2022-11-18T05:56:42.051Z,98181.91
2022-11-18T05:57:14.296Z,98180.66
2022-11-18T05:57:46.206Z,98183.94
2022-11-18T05:58:18.304Z,98181.81
2022-11-18T05:58:50.262Z,98190.16
2022-11-18T05:59:22.177Z,98188.56
2022-11-18T05:59:54.116Z,98178.94
2022-11-18T06:00:26.193Z,98188.66
2022-11-18T06:01:03.476Z,98194.34
2022-11-18T06:01:44.308Z,98188.34
2022-11-18T06:02:23.977Z,98189.50
2022-11-18T06:02:57.693Z,98187.66
2022-11-18T06:03:32.211Z,98182.00
2022-11-18T06:04:25.669Z,98179.87
2022-11-18T06:05:02.847Z,98183.00
2022-11-18T06:05:34.966Z,98184.16
2022-11-18T06:06:10.695Z,98185.09
2022-11-18T06:06:44.327Z,98189.97
2022-11-18T06:07:22.868Z,98184.97
2022-11-18T06:07:57.139Z,98183.16
2022-11-18T06:08:33.176Z,98175.56
2022-11-18T06:09:07.269Z,98175.09
2022-11-18T06:09:42.395Z,98173.63
2022-11-18T06:10:28.028Z,98177.69
2022-11-18T06:10:59.964Z,98169.81
2022-11-18T06:11:43.411Z,98178.19
2022-11-18T06:12:23.501Z,98170.53
2022-11-18T06:13:00.361Z,98176.44
2022-11-18T06:13:38.713Z,98180.66
2022-11-18T06:14:36.006Z,98178.84
2022-11-18T06:15:20.672Z,98189.31
2022-11-18T06:15:52.850Z,98182.41
2022-11-18T06:16:27.970Z,98191.53
2022-11-18T06:17:05.820Z,98186.91
2022-11-18T06:17:46.147Z,98193.28
2022-11-18T06:18:25.426Z,98192.88
2022-11-18T06:18:58.130Z,98200.75
2022-11-18T06:19:31.623Z,98193.59
2022-11-18T06:20:05.048Z,98199.38
2022-11-18T06:20:40.401Z,98195.75
2022-11-18T06:21:12.731Z,98197.69
2022-11-18T06:21:46.559Z,98194.53
2022-11-18T06:22:18.911Z,98199.50
2022-11-18T06:22:54.258Z,98192.03
2022-11-18T06:23:31.741Z,98202.44
2022-11-18T06:24:03.877Z,98196.75
2022-11-18T06:24:36.424Z,98201.63
2022-11-18T06:25:08.450Z,98202.97
2022-11-18T06:25:41.007Z,98202.72
2022-11-18T06:26:15.573Z,98204.66
2022-11-18T06:26:48.571Z,98201.16
2022-11-18T06:27:21.095Z,98195.59
2022-11-18T06:27:56.159Z,98197.88
2022-11-18T06:28:29.741Z,98197.25
2022-11-18T06:29:01.674Z,98192.50
2022-11-18T06:29:33.520Z,98187.63
2022-11-18T06:30:06.023Z,98182.41
2022-11-18T06:30:38.699Z,98184.69
2022-11-18T06:31:10.574Z,98178.84
2022-11-18T06:31:42.443Z,98180.09
2022-11-18T06:32:14.320Z,98183.41
2022-11-18T06:32:46.557Z,98180.59
2022-11-18T06:33:18.571Z,98178.94
2022-11-18T06:33:50.435Z,98185.78
2022-11-18T06:34:22.636Z,98180.16
2022-11-18T06:34:54.547Z,98186.84
2022-11-18T06:35:26.407Z,98183.50
2022-11-18T06:35:58.372Z,98180.34
2022-11-18T06:36:30.303Z,98182.94
2022-11-18T06:37:15.517Z,98180.81
2022-11-18T06:37:47.674Z,98181.00
2022-11-18T06:38:19.582Z,98181.00
2022-11-18T06:38:51.419Z,98174.47
2022-11-18T06:39:23.375Z,98178.41
2022-11-18T06:39:55.678Z,98177.59
2022-11-18T06:40:31.768Z,98174.69
2022-11-18T06:41:06.529Z,98184.28
2022-11-18T06:41:38.425Z,98174.97
2022-11-18T06:42:10.846Z,98186.47
2022-11-18T06:43:01.788Z,98182.97
2022-11-18T06:43:41.704Z,98185.34
2022-11-18T06:44:13.864Z,98183.91
2022-11-18T06:44:45.763Z,98186.50
2022-11-18T06:45:17.768Z,98181.59
2022-11-18T06:46:09.662Z,98185.41
2022-11-18T06:46:57.234Z,98173.91
2022-11-18T06:47:29.230Z,98175.25
2022-11-18T06:48:01.574Z,98180.44
2022-11-18T06:48:33.768Z,98167.53
2022-11-18T06:49:05.744Z,98167.94
2022-11-18T06:49:37.710Z,98177.84
2022-11-18T06:50:10.046Z,98174.13
2022-11-18T06:50:41.881Z,98173.44
2022-11-18T06:51:13.793Z,98172.03
2022-11-18T06:51:45.791Z,98175.66
2022-11-18T06:52:17.747Z,98178.50
2022-11-18T06:52:49.627Z,98176.44
2022-11-18T06:53:21.494Z,98176.44
2022-11-18T06:53:53.723Z,98173.69
2022-11-18T06:54:25.593Z,98179.94
2022-11-18T06:54:57.548Z,98177.34
2022-11-18T06:55:29.459Z,98186.84
2022-11-18T06:56:06.068Z,98178.81
2022-11-18T06:56:38.067Z,98186.63
2022-11-18T06:57:09.905Z,98181.31
2022-11-18T06:57:41.763Z,98179.31
2022-11-18T06:58:13.649Z,98183.34
2022-11-18T06:58:46.287Z,98181.97
2022-11-18T06:59:23.770Z,98182.06
2022-11-18T07:00:01.634Z,98176.62
2022-11-18T07:00:34.053Z,98188.63
2022-11-18T07:01:13.735Z,98185.22